sensor_id;sensor_type;location;lat;lon;timestamp;temperature;humidity
61004;DHT22;46889;37.310;13.582;2023-08-08T00:01:11;22.20;99.90
61004;DHT22;46889;37.310;13.582;2023-08-08T00:03:37;22.10;99.90
61004;DHT22;46889;37.310;13.582;2023-08-08T00:06:03;22.10;99.90
61004;DHT22;46889;37.310;13.582;2023-08-08T00:08:29;22.10;99.90
61004;DHT22;46889;37.310;13.582;2023-08-08T00:10:55;22.10;99.90
61004;DHT22;46889;37.310;13.582;2023-08-08T00:13:21;22.10;99.90
61004;DHT22;46889;37.310;13.582;2023-08-08T00:15:46;22.10;99.90
61004;DHT22;46889;37.310;13.582;2023-08-08T00:18:13;22.00;99.90
61004;DHT22;46889;37.310;13.582;2023-08-08T00:20:39;22.10;99.90
61004;DHT22;46889;37.310;13.582;2023-08-08T00:23:05;22.10;99.90
61004;DHT22;46889;37.310;13.582;2023-08-08T00:25:31;22.00;99.90
61004;DHT22;46889;37.310;13.582;2023-08-08T00:27:57;22.00;99.90
61004;DHT22;46889;37.310;13.582;2023-08-08T00:30:23;22.00;99.90
61004;DHT22;46889;37.310;13.582;2023-08-08T00:32:49;22.00;99.90
61004;DHT22;46889;37.310;13.582;2023-08-08T00:35:15;22.00;99.90
61004;DHT22;46889;37.310;13.582;2023-08-08T00:37:41;22.00;99.90
61004;DHT22;46889;37.310;13.582;2023-08-08T00:40:07;22.00;99.90
61004;DHT22;46889;37.310;13.582;2023-08-08T00:42:33;22.00;99.90
61004;DHT22;46889;37.310;13.582;2023-08-08T00:44:59;22.00;99.90
61004;DHT22;46889;37.310;13.582;2023-08-08T00:47:32;22.00;99.90
61004;DHT22;46889;37.310;13.582;2023-08-08T00:49:58;22.00;99.90
61004;DHT22;46889;37.310;13.582;2023-08-08T00:52:24;21.90;99.90
61004;DHT22;46889;37.310;13.582;2023-08-08T00:54:51;21.90;99.90
61004;DHT22;46889;37.310;13.582;2023-08-08T00:57:17;21.90;99.90
61004;DHT22;46889;37.310;13.582;2023-08-08T00:59:43;21.90;99.90
61004;DHT22;46889;37.310;13.582;2023-08-08T01:02:09;21.90;99.90
61004;DHT22;46889;37.310;13.582;2023-08-08T01:04:35;22.00;99.90
61004;DHT22;46889;37.310;13.582;2023-08-08T01:07:04;21.90;99.90
61004;DHT22;46889;37.310;13.582;2023-08-08T01:09:43;21.90;99.90
61004;DHT22;46889;37.310;13.582;2023-08-08T01:12:11;21.90;99.90
61004;DHT22;46889;37.310;13.582;2023-08-08T01:14:38;21.90;99.90
61004;DHT22;46889;37.310;13.582;2023-08-08T01:17:05;21.90;99.90
61004;DHT22;46889;37.310;13.582;2023-08-08T01:19:32;22.00;99.90
61004;DHT22;46889;37.310;13.582;2023-08-08T01:22:02;21.90;99.90
61004;DHT22;46889;37.310;13.582;2023-08-08T01:24:30;21.90;99.90
61004;DHT22;46889;37.310;13.582;2023-08-08T01:26:58;21.90;99.90
61004;DHT22;46889;37.310;13.582;2023-08-08T01:29:24;22.00;99.90
61004;DHT22;46889;37.310;13.582;2023-08-08T01:31:50;22.00;99.90
61004;DHT22;46889;37.310;13.582;2023-08-08T01:34:16;22.00;99.90
61004;DHT22;46889;37.310;13.582;2023-08-08T01:36:45;22.00;99.90
61004;DHT22;46889;37.310;13.582;2023-08-08T01:39:13;22.10;99.90
61004;DHT22;46889;37.310;13.582;2023-08-08T01:41:42;22.10;99.90
61004;DHT22;46889;37.310;13.582;2023-08-08T01:44:08;22.10;99.90
61004;DHT22;46889;37.310;13.582;2023-08-08T01:46:34;22.10;99.90
61004;DHT22;46889;37.310;13.582;2023-08-08T01:49:01;22.00;99.90
61004;DHT22;46889;37.310;13.582;2023-08-08T01:51:27;22.00;99.90
61004;DHT22;46889;37.310;13.582;2023-08-08T01:53:53;22.10;99.90
61004;DHT22;46889;37.310;13.582;2023-08-08T01:56:19;22.10;99.90
61004;DHT22;46889;37.310;13.582;2023-08-08T01:58:45;22.00;99.90
61004;DHT22;46889;37.310;13.582;2023-08-08T02:01:11;21.90;99.90
61004;DHT22;46889;37.310;13.582;2023-08-08T02:03:37;21.90;99.90
61004;DHT22;46889;37.310;13.582;2023-08-08T02:06:02;22.00;99.90
61004;DHT22;46889;37.310;13.582;2023-08-08T02:08:28;21.90;99.90
61004;DHT22;46889;37.310;13.582;2023-08-08T02:10:54;22.00;99.90
61004;DHT22;46889;37.310;13.582;2023-08-08T02:13:20;22.00;99.90
61004;DHT22;46889;37.310;13.582;2023-08-08T02:15:46;21.90;99.90
61004;DHT22;46889;37.310;13.582;2023-08-08T02:18:11;21.90;99.90
61004;DHT22;46889;37.310;13.582;2023-08-08T02:20:37;21.90;99.90
61004;DHT22;46889;37.310;13.582;2023-08-08T02:23:03;21.90;99.90
61004;DHT22;46889;37.310;13.582;2023-08-08T02:25:29;21.90;99.90
61004;DHT22;46889;37.310;13.582;2023-08-08T02:27:56;21.90;99.90
61004;DHT22;46889;37.310;13.582;2023-08-08T02:30:22;21.90;99.90
61004;DHT22;46889;37.310;13.582;2023-08-08T02:32:48;21.90;99.90
61004;DHT22;46889;37.310;13.582;2023-08-08T02:35:14;22.00;99.90
61004;DHT22;46889;37.310;13.582;2023-08-08T02:37:40;22.00;99.90
61004;DHT22;46889;37.310;13.582;2023-08-08T02:40:06;22.00;99.90
61004;DHT22;46889;37.310;13.582;2023-08-08T02:42:33;22.00;99.90
61004;DHT22;46889;37.310;13.582;2023-08-08T02:44:59;22.00;99.90
61004;DHT22;46889;37.310;13.582;2023-08-08T02:47:25;22.00;99.90
61004;DHT22;46889;37.310;13.582;2023-08-08T02:49:51;22.00;99.90
61004;DHT22;46889;37.310;13.582;2023-08-08T02:52:17;22.00;99.90
61004;DHT22;46889;37.310;13.582;2023-08-08T02:54:43;22.10;99.90
61004;DHT22;46889;37.310;13.582;2023-08-08T02:57:09;22.10;99.90
61004;DHT22;46889;37.310;13.582;2023-08-08T02:59:36;22.10;99.90
61004;DHT22;46889;37.310;13.582;2023-08-08T03:02:02;22.00;99.90
61004;DHT22;46889;37.310;13.582;2023-08-08T03:04:29;22.00;99.90
61004;DHT22;46889;37.310;13.582;2023-08-08T03:06:55;22.00;99.90
61004;DHT22;46889;37.310;13.582;2023-08-08T03:09:21;22.00;99.90
61004;DHT22;46889;37.310;13.582;2023-08-08T03:11:47;22.00;99.90
61004;DHT22;46889;37.310;13.582;2023-08-08T03:14:13;22.00;99.90
61004;DHT22;46889;37.310;13.582;2023-08-08T03:16:39;22.10;99.90
61004;DHT22;46889;37.310;13.582;2023-08-08T03:19:05;22.10;99.90
61004;DHT22;46889;37.310;13.582;2023-08-08T03:21:31;22.00;99.90
61004;DHT22;46889;37.310;13.582;2023-08-08T03:23:57;22.00;99.90
61004;DHT22;46889;37.310;13.582;2023-08-08T03:26:23;22.00;99.90
61004;DHT22;46889;37.310;13.582;2023-08-08T03:28:49;22.00;99.90
61004;DHT22;46889;37.310;13.582;2023-08-08T03:31:16;22.00;99.90
61004;DHT22;46889;37.310;13.582;2023-08-08T03:33:43;22.00;99.90
61004;DHT22;46889;37.310;13.582;2023-08-08T03:36:09;22.00;99.90
61004;DHT22;46889;37.310;13.582;2023-08-08T03:38:35;22.00;99.90
61004;DHT22;46889;37.310;13.582;2023-08-08T03:41:01;22.00;99.90
61004;DHT22;46889;37.310;13.582;2023-08-08T03:43:27;22.00;99.90
61004;DHT22;46889;37.310;13.582;2023-08-08T03:45:53;22.10;99.90
61004;DHT22;46889;37.310;13.582;2023-08-08T03:48:19;22.00;99.90
61004;DHT22;46889;37.310;13.582;2023-08-08T03:50:45;22.10;99.90
61004;DHT22;46889;37.310;13.582;2023-08-08T03:53:12;22.00;99.90
61004;DHT22;46889;37.310;13.582;2023-08-08T03:55:38;22.00;99.90
61004;DHT22;46889;37.310;13.582;2023-08-08T03:58:03;22.10;99.90
61004;DHT22;46889;37.310;13.582;2023-08-08T04:00:31;22.00;99.90
61004;DHT22;46889;37.310;13.582;2023-08-08T04:02:57;22.00;99.90
61004;DHT22;46889;37.310;13.582;2023-08-08T04:05:22;22.00;99.90
61004;DHT22;46889;37.310;13.582;2023-08-08T04:07:48;22.00;99.90
61004;DHT22;46889;37.310;13.582;2023-08-08T04:10:14;22.00;99.90
61004;DHT22;46889;37.310;13.582;2023-08-08T04:12:40;22.00;99.90
61004;DHT22;46889;37.310;13.582;2023-08-08T04:15:06;22.00;99.90
61004;DHT22;46889;37.310;13.582;2023-08-08T04:17:32;22.10;99.90
61004;DHT22;46889;37.310;13.582;2023-08-08T04:19:58;22.10;99.90
61004;DHT22;46889;37.310;13.582;2023-08-08T04:22:24;22.10;99.90
61004;DHT22;46889;37.310;13.582;2023-08-08T04:24:50;22.10;99.90
61004;DHT22;46889;37.310;13.582;2023-08-08T04:27:15;22.10;99.90
61004;DHT22;46889;37.310;13.582;2023-08-08T04:29:41;22.20;99.90
61004;DHT22;46889;37.310;13.582;2023-08-08T04:32:07;22.20;99.90
61004;DHT22;46889;37.310;13.582;2023-08-08T04:34:33;22.20;99.90
61004;DHT22;46889;37.310;13.582;2023-08-08T04:37:02;22.30;99.90
61004;DHT22;46889;37.310;13.582;2023-08-08T04:39:28;22.10;99.90
61004;DHT22;46889;37.310;13.582;2023-08-08T04:41:55;22.10;99.90
61004;DHT22;46889;37.310;13.582;2023-08-08T04:44:20;22.10;99.90
61004;DHT22;46889;37.310;13.582;2023-08-08T04:46:46;22.00;99.90
61004;DHT22;46889;37.310;13.582;2023-08-08T04:49:12;22.10;99.90
61004;DHT22;46889;37.310;13.582;2023-08-08T04:51:38;22.20;99.90
61004;DHT22;46889;37.310;13.582;2023-08-08T04:54:04;22.20;99.90
61004;DHT22;46889;37.310;13.582;2023-08-08T04:56:30;22.20;99.90
61004;DHT22;46889;37.310;13.582;2023-08-08T04:58:56;22.30;99.90
61004;DHT22;46889;37.310;13.582;2023-08-08T05:01:21;22.30;99.90
61004;DHT22;46889;37.310;13.582;2023-08-08T05:03:47;22.30;99.90
61004;DHT22;46889;37.310;13.582;2023-08-08T05:06:13;22.40;99.90
61004;DHT22;46889;37.310;13.582;2023-08-08T05:08:39;22.40;99.90
61004;DHT22;46889;37.310;13.582;2023-08-08T05:11:05;22.20;99.90
61004;DHT22;46889;37.310;13.582;2023-08-08T05:13:31;22.40;99.90
61004;DHT22;46889;37.310;13.582;2023-08-08T05:15:57;22.40;99.90
61004;DHT22;46889;37.310;13.582;2023-08-08T05:18:22;22.40;99.90
61004;DHT22;46889;37.310;13.582;2023-08-08T05:20:48;22.90;99.90
61004;DHT22;46889;37.310;13.582;2023-08-08T05:23:14;24.40;99.90
61004;DHT22;46889;37.310;13.582;2023-08-08T05:25:40;26.10;99.90
61004;DHT22;46889;37.310;13.582;2023-08-08T05:28:06;27.90;99.90
61004;DHT22;46889;37.310;13.582;2023-08-08T05:30:32;29.40;99.90
61004;DHT22;46889;37.310;13.582;2023-08-08T05:32:58;30.10;99.90
61004;DHT22;46889;37.310;13.582;2023-08-08T05:35:24;31.80;99.90
61004;DHT22;46889;37.310;13.582;2023-08-08T05:37:51;32.60;99.90
61004;DHT22;46889;37.310;13.582;2023-08-08T05:40:16;33.90;99.90
61004;DHT22;46889;37.310;13.582;2023-08-08T05:42:42;34.20;99.90
61004;DHT22;46889;37.310;13.582;2023-08-08T05:45:08;34.80;99.90
61004;DHT22;46889;37.310;13.582;2023-08-08T05:47:34;34.40;99.90
61004;DHT22;46889;37.310;13.582;2023-08-08T05:50:00;34.10;99.90
61004;DHT22;46889;37.310;13.582;2023-08-08T05:52:26;34.10;99.90
61004;DHT22;46889;37.310;13.582;2023-08-08T05:54:51;35.20;99.90
61004;DHT22;46889;37.310;13.582;2023-08-08T05:57:17;34.80;99.50
61004;DHT22;46889;37.310;13.582;2023-08-08T05:59:43;35.10;99.40
61004;DHT22;46889;37.310;13.582;2023-08-08T06:02:10;35.70;98.90
61004;DHT22;46889;37.310;13.582;2023-08-08T06:04:38;36.60;97.60
61004;DHT22;46889;37.310;13.582;2023-08-08T06:07:04;36.50;97.40
61004;DHT22;46889;37.310;13.582;2023-08-08T06:09:30;35.60;97.40
61004;DHT22;46889;37.310;13.582;2023-08-08T06:11:58;36.30;97.00
61004;DHT22;46889;37.310;13.582;2023-08-08T06:14:23;35.90;97.20
61004;DHT22;46889;37.310;13.582;2023-08-08T06:16:49;36.40;96.90
61004;DHT22;46889;37.310;13.582;2023-08-08T06:19:15;36.40;97.30
61004;DHT22;46889;37.310;13.582;2023-08-08T06:21:42;35.80;97.00
61004;DHT22;46889;37.310;13.582;2023-08-08T06:24:07;36.10;97.10
61004;DHT22;46889;37.310;13.582;2023-08-08T06:26:33;36.20;96.50
61004;DHT22;46889;37.310;13.582;2023-08-08T06:28:59;36.90;96.20
61004;DHT22;46889;37.310;13.582;2023-08-08T06:31:25;36.20;96.50
61004;DHT22;46889;37.310;13.582;2023-08-08T06:33:51;37.30;95.60
61004;DHT22;46889;37.310;13.582;2023-08-08T06:36:17;37.00;95.90
61004;DHT22;46889;37.310;13.582;2023-08-08T06:38:46;38.10;95.00
61004;DHT22;46889;37.310;13.582;2023-08-08T06:41:11;38.10;94.10
61004;DHT22;46889;37.310;13.582;2023-08-08T06:43:38;36.90;95.20
61004;DHT22;46889;37.310;13.582;2023-08-08T06:46:04;38.10;94.20
61004;DHT22;46889;37.310;13.582;2023-08-08T06:48:30;38.50;93.70
61004;DHT22;46889;37.310;13.582;2023-08-08T06:50:56;39.70;92.80
61004;DHT22;46889;37.310;13.582;2023-08-08T06:53:22;39.10;92.10
61004;DHT22;46889;37.310;13.582;2023-08-08T06:55:48;37.30;94.30
61004;DHT22;46889;37.310;13.582;2023-08-08T06:58:14;35.70;94.70
61004;DHT22;46889;37.310;13.582;2023-08-08T07:00:40;34.90;96.10
61004;DHT22;46889;37.310;13.582;2023-08-08T07:03:06;35.40;95.40
61004;DHT22;46889;37.310;13.582;2023-08-08T07:05:32;37.40;94.30
61004;DHT22;46889;37.310;13.582;2023-08-08T07:07:58;36.70;94.10
61004;DHT22;46889;37.310;13.582;2023-08-08T07:10:23;35.80;94.50
61004;DHT22;46889;37.310;13.582;2023-08-08T07:12:49;36.10;95.00
61004;DHT22;46889;37.310;13.582;2023-08-08T07:15:15;36.10;94.00
61004;DHT22;46889;37.310;13.582;2023-08-08T07:17:41;36.40;93.70
61004;DHT22;46889;37.310;13.582;2023-08-08T07:20:07;37.10;93.20
61004;DHT22;46889;37.310;13.582;2023-08-08T07:22:33;36.20;93.30
61004;DHT22;46889;37.310;13.582;2023-08-08T07:24:59;36.30;93.90
61004;DHT22;46889;37.310;13.582;2023-08-08T07:27:28;35.90;93.20
61004;DHT22;46889;37.310;13.582;2023-08-08T07:29:54;34.60;93.50
61004;DHT22;46889;37.310;13.582;2023-08-08T07:32:20;34.20;93.60
61004;DHT22;46889;37.310;13.582;2023-08-08T07:34:45;32.50;94.40
61004;DHT22;46889;37.310;13.582;2023-08-08T07:37:11;31.40;94.80
61004;DHT22;46889;37.310;13.582;2023-08-08T07:39:37;30.70;95.20
61004;DHT22;46889;37.310;13.582;2023-08-08T07:42:03;29.70;96.80
61004;DHT22;46889;37.310;13.582;2023-08-08T07:44:29;29.70;97.40
61004;DHT22;46889;37.310;13.582;2023-08-08T07:46:57;29.40;97.80
61004;DHT22;46889;37.310;13.582;2023-08-08T07:49:25;29.70;98.30
61004;DHT22;46889;37.310;13.582;2023-08-08T07:51:51;29.20;98.50
61004;DHT22;46889;37.310;13.582;2023-08-08T07:54:17;29.90;98.60
61004;DHT22;46889;37.310;13.582;2023-08-08T07:56:43;29.90;97.80
61004;DHT22;46889;37.310;13.582;2023-08-08T07:59:08;29.90;97.80
61004;DHT22;46889;37.310;13.582;2023-08-08T08:01:35;30.30;97.50
61004;DHT22;46889;37.310;13.582;2023-08-08T08:04:01;30.20;97.90
61004;DHT22;46889;37.310;13.582;2023-08-08T08:06:28;30.20;97.50
61004;DHT22;46889;37.310;13.582;2023-08-08T08:08:54;29.30;97.80
61004;DHT22;46889;37.310;13.582;2023-08-08T08:11:19;28.70;98.70
61004;DHT22;46889;37.310;13.582;2023-08-08T08:13:45;28.80;98.80
61004;DHT22;46889;37.310;13.582;2023-08-08T08:16:12;28.40;98.70
61004;DHT22;46889;37.310;13.582;2023-08-08T08:18:37;28.70;98.90
61004;DHT22;46889;37.310;13.582;2023-08-08T08:21:04;27.90;99.00
61004;DHT22;46889;37.310;13.582;2023-08-08T08:23:30;28.00;99.30
61004;DHT22;46889;37.310;13.582;2023-08-08T08:25:57;28.20;99.10
61004;DHT22;46889;37.310;13.582;2023-08-08T08:28:23;28.70;98.90
61004;DHT22;46889;37.310;13.582;2023-08-08T08:30:49;29.70;98.50
61004;DHT22;46889;37.310;13.582;2023-08-08T08:33:15;30.40;97.50
61004;DHT22;46889;37.310;13.582;2023-08-08T08:35:41;30.80;97.40
61004;DHT22;46889;37.310;13.582;2023-08-08T08:38:07;31.20;96.70
61004;DHT22;46889;37.310;13.582;2023-08-08T08:40:33;31.70;97.00
61004;DHT22;46889;37.310;13.582;2023-08-08T08:43:02;32.30;96.60
61004;DHT22;46889;37.310;13.582;2023-08-08T08:45:28;32.50;96.20
61004;DHT22;46889;37.310;13.582;2023-08-08T08:47:55;32.50;95.90
61004;DHT22;46889;37.310;13.582;2023-08-08T08:50:21;32.70;96.30
61004;DHT22;46889;37.310;13.582;2023-08-08T08:52:47;32.30;95.60
61004;DHT22;46889;37.310;13.582;2023-08-08T08:55:13;32.60;95.80
61004;DHT22;46889;37.310;13.582;2023-08-08T08:57:39;33.10;95.70
61004;DHT22;46889;37.310;13.582;2023-08-08T09:00:05;33.20;95.50
61004;DHT22;46889;37.310;13.582;2023-08-08T09:02:31;33.40;94.80
61004;DHT22;46889;37.310;13.582;2023-08-08T09:04:58;33.50;94.60
61004;DHT22;46889;37.310;13.582;2023-08-08T09:07:24;33.60;94.50
61004;DHT22;46889;37.310;13.582;2023-08-08T09:09:52;33.40;94.40
61004;DHT22;46889;37.310;13.582;2023-08-08T09:12:18;33.30;94.40
61004;DHT22;46889;37.310;13.582;2023-08-08T09:14:44;33.30;94.20
61004;DHT22;46889;37.310;13.582;2023-08-08T09:17:10;33.00;94.60
61004;DHT22;46889;37.310;13.582;2023-08-08T09:19:37;32.70;94.80
61004;DHT22;46889;37.310;13.582;2023-08-08T09:22:02;32.80;94.30
61004;DHT22;46889;37.310;13.582;2023-08-08T09:24:28;32.50;94.70
61004;DHT22;46889;37.310;13.582;2023-08-08T09:26:54;32.40;95.10
61004;DHT22;46889;37.310;13.582;2023-08-08T09:29:20;32.30;95.10
61004;DHT22;46889;37.310;13.582;2023-08-08T09:31:46;32.20;95.10
61004;DHT22;46889;37.310;13.582;2023-08-08T09:34:12;31.90;95.40
61004;DHT22;46889;37.310;13.582;2023-08-08T09:36:38;31.50;96.20
61004;DHT22;46889;37.310;13.582;2023-08-08T09:39:05;31.40;96.30
61004;DHT22;46889;37.310;13.582;2023-08-08T09:41:32;31.00;96.60
61004;DHT22;46889;37.310;13.582;2023-08-08T09:43:58;30.90;97.00
61004;DHT22;46889;37.310;13.582;2023-08-08T09:46:24;31.10;96.50
61004;DHT22;46889;37.310;13.582;2023-08-08T09:48:50;31.20;96.40
61004;DHT22;46889;37.310;13.582;2023-08-08T09:51:16;31.10;96.50
61004;DHT22;46889;37.310;13.582;2023-08-08T09:53:43;31.20;96.40
61004;DHT22;46889;37.310;13.582;2023-08-08T09:56:09;31.30;96.00
61004;DHT22;46889;37.310;13.582;2023-08-08T09:58:36;31.00;96.20
61004;DHT22;46889;37.310;13.582;2023-08-08T10:01:01;30.90;96.20
61004;DHT22;46889;37.310;13.582;2023-08-08T10:03:30;31.00;96.20
61004;DHT22;46889;37.310;13.582;2023-08-08T10:05:57;30.90;95.90
61004;DHT22;46889;37.310;13.582;2023-08-08T10:08:23;30.80;96.00
61004;DHT22;46889;37.310;13.582;2023-08-08T10:10:50;30.50;96.40
61004;DHT22;46889;37.310;13.582;2023-08-08T10:13:19;30.50;96.20
61004;DHT22;46889;37.310;13.582;2023-08-08T10:15:46;30.40;95.60
61004;DHT22;46889;37.310;13.582;2023-08-08T10:18:12;30.30;95.50
61004;DHT22;46889;37.310;13.582;2023-08-08T10:20:38;30.40;95.30
61004;DHT22;46889;37.310;13.582;2023-08-08T10:23:04;30.70;95.20
61004;DHT22;46889;37.310;13.582;2023-08-08T10:25:32;30.70;94.80
61004;DHT22;46889;37.310;13.582;2023-08-08T10:30:29;30.70;94.10
61004;DHT22;46889;37.310;13.582;2023-08-08T10:32:56;30.70;94.50
61004;DHT22;46889;37.310;13.582;2023-08-08T10:35:22;30.60;94.00
61004;DHT22;46889;37.310;13.582;2023-08-08T10:37:53;30.50;94.40
61004;DHT22;46889;37.310;13.582;2023-08-08T10:40:20;30.70;94.20
61004;DHT22;46889;37.310;13.582;2023-08-08T10:42:46;31.00;94.20
61004;DHT22;46889;37.310;13.582;2023-08-08T10:45:14;30.80;93.90
61004;DHT22;46889;37.310;13.582;2023-08-08T10:47:40;30.70;93.30
61004;DHT22;46889;37.310;13.582;2023-08-08T10:50:12;30.50;92.90
61004;DHT22;46889;37.310;13.582;2023-08-08T10:52:52;30.60;92.60
61004;DHT22;46889;37.310;13.582;2023-08-08T10:55:22;30.50;93.00
61004;DHT22;46889;37.310;13.582;2023-08-08T10:57:58;30.30;94.10
61004;DHT22;46889;37.310;13.582;2023-08-08T11:00:28;30.20;95.70
61004;DHT22;46889;37.310;13.582;2023-08-08T11:02:55;30.10;96.70
61004;DHT22;46889;37.310;13.582;2023-08-08T11:05:22;29.50;98.40
61004;DHT22;46889;37.310;13.582;2023-08-08T11:07:48;29.20;99.00
61004;DHT22;46889;37.310;13.582;2023-08-08T11:10:14;29.10;98.90
61004;DHT22;46889;37.310;13.582;2023-08-08T11:12:40;29.10;99.10
61004;DHT22;46889;37.310;13.582;2023-08-08T11:15:06;29.10;99.50
61004;DHT22;46889;37.310;13.582;2023-08-08T11:17:32;29.20;99.90
61004;DHT22;46889;37.310;13.582;2023-08-08T11:19:58;29.30;99.90
61004;DHT22;46889;37.310;13.582;2023-08-08T11:22:23;29.30;99.90
61004;DHT22;46889;37.310;13.582;2023-08-08T11:24:49;29.40;99.80
61004;DHT22;46889;37.310;13.582;2023-08-08T11:27:16;29.30;99.90
61004;DHT22;46889;37.310;13.582;2023-08-08T11:29:51;29.40;99.90
61004;DHT22;46889;37.310;13.582;2023-08-08T11:32:17;29.30;99.90
61004;DHT22;46889;37.310;13.582;2023-08-08T11:34:43;29.50;99.90
61004;DHT22;46889;37.310;13.582;2023-08-08T11:37:09;29.50;99.90
61004;DHT22;46889;37.310;13.582;2023-08-08T11:39:36;29.70;99.90
61004;DHT22;46889;37.310;13.582;2023-08-08T11:42:02;29.40;99.90
61004;DHT22;46889;37.310;13.582;2023-08-08T11:44:28;29.50;99.90
61004;DHT22;46889;37.310;13.582;2023-08-08T11:46:54;29.50;99.90
61004;DHT22;46889;37.310;13.582;2023-08-08T11:49:20;29.50;99.90
61004;DHT22;46889;37.310;13.582;2023-08-08T11:51:46;29.40;99.90
61004;DHT22;46889;37.310;13.582;2023-08-08T11:54:12;29.30;99.90
61004;DHT22;46889;37.310;13.582;2023-08-08T11:56:38;29.40;99.90
61004;DHT22;46889;37.310;13.582;2023-08-08T11:59:04;29.30;99.90
61004;DHT22;46889;37.310;13.582;2023-08-08T12:01:32;29.50;99.90
61004;DHT22;46889;37.310;13.582;2023-08-08T12:03:58;29.40;99.90
61004;DHT22;46889;37.310;13.582;2023-08-08T12:06:27;29.70;99.90
61004;DHT22;46889;37.310;13.582;2023-08-08T12:08:54;29.70;99.90
61004;DHT22;46889;37.310;13.582;2023-08-08T12:11:20;29.80;99.90
61004;DHT22;46889;37.310;13.582;2023-08-08T12:13:45;29.90;99.90
61004;DHT22;46889;37.310;13.582;2023-08-08T12:16:12;30.00;99.90
61004;DHT22;46889;37.310;13.582;2023-08-08T12:18:38;29.90;99.90
61004;DHT22;46889;37.310;13.582;2023-08-08T12:21:05;30.00;99.90
61004;DHT22;46889;37.310;13.582;2023-08-08T12:23:31;29.80;99.90
61004;DHT22;46889;37.310;13.582;2023-08-08T12:25:57;29.90;99.90
61004;DHT22;46889;37.310;13.582;2023-08-08T12:28:23;29.90;99.90
61004;DHT22;46889;37.310;13.582;2023-08-08T12:30:49;30.00;99.90
61004;DHT22;46889;37.310;13.582;2023-08-08T12:33:15;30.10;99.90
61004;DHT22;46889;37.310;13.582;2023-08-08T12:35:41;30.20;99.90
61004;DHT22;46889;37.310;13.582;2023-08-08T12:38:07;30.20;99.90
61004;DHT22;46889;37.310;13.582;2023-08-08T12:40:33;30.30;99.90
61004;DHT22;46889;37.310;13.582;2023-08-08T12:42:59;30.20;99.90
61004;DHT22;46889;37.310;13.582;2023-08-08T12:45:25;30.40;99.90
61004;DHT22;46889;37.310;13.582;2023-08-08T12:47:51;30.40;99.90
61004;DHT22;46889;37.310;13.582;2023-08-08T12:50:16;30.50;99.90
61004;DHT22;46889;37.310;13.582;2023-08-08T12:52:42;30.60;99.90
61004;DHT22;46889;37.310;13.582;2023-08-08T12:55:08;30.40;99.90
61004;DHT22;46889;37.310;13.582;2023-08-08T12:57:36;30.10;99.90
61004;DHT22;46889;37.310;13.582;2023-08-08T13:00:02;30.10;99.90
61004;DHT22;46889;37.310;13.582;2023-08-08T13:02:28;30.30;99.90
61004;DHT22;46889;37.310;13.582;2023-08-08T13:04:55;30.10;99.90
61004;DHT22;46889;37.310;13.582;2023-08-08T13:07:21;30.20;99.90
61004;DHT22;46889;37.310;13.582;2023-08-08T13:09:46;30.30;99.90
61004;DHT22;46889;37.310;13.582;2023-08-08T13:12:12;30.50;99.90
61004;DHT22;46889;37.310;13.582;2023-08-08T13:14:38;30.50;99.90
61004;DHT22;46889;37.310;13.582;2023-08-08T13:17:04;30.50;99.60
61004;DHT22;46889;37.310;13.582;2023-08-08T13:19:30;30.60;99.90
61004;DHT22;46889;37.310;13.582;2023-08-08T13:21:55;30.60;99.90
61004;DHT22;46889;37.310;13.582;2023-08-08T13:24:21;30.50;99.90
61004;DHT22;46889;37.310;13.582;2023-08-08T13:26:50;30.60;99.90
61004;DHT22;46889;37.310;13.582;2023-08-08T13:29:16;30.60;99.90
61004;DHT22;46889;37.310;13.582;2023-08-08T13:31:42;30.50;99.90
61004;DHT22;46889;37.310;13.582;2023-08-08T13:34:09;30.60;99.90
61004;DHT22;46889;37.310;13.582;2023-08-08T13:36:35;30.70;99.90
61004;DHT22;46889;37.310;13.582;2023-08-08T13:39:01;30.70;99.90
61004;DHT22;46889;37.310;13.582;2023-08-08T13:41:26;30.70;99.90
61004;DHT22;46889;37.310;13.582;2023-08-08T13:43:52;30.40;99.90
61004;DHT22;46889;37.310;13.582;2023-08-08T13:46:18;30.40;99.90
61004;DHT22;46889;37.310;13.582;2023-08-08T13:48:44;30.40;99.90
61004;DHT22;46889;37.310;13.582;2023-08-08T13:51:10;30.40;99.90
61004;DHT22;46889;37.310;13.582;2023-08-08T13:53:36;30.40;99.90
61004;DHT22;46889;37.310;13.582;2023-08-08T13:56:01;30.40;99.90
61004;DHT22;46889;37.310;13.582;2023-08-08T13:58:27;30.50;99.90
61004;DHT22;46889;37.310;13.582;2023-08-08T14:00:54;30.30;99.90
61004;DHT22;46889;37.310;13.582;2023-08-08T14:03:20;30.10;99.90
61004;DHT22;46889;37.310;13.582;2023-08-08T14:05:46;30.30;99.90
61004;DHT22;46889;37.310;13.582;2023-08-08T14:08:12;30.10;99.90
61004;DHT22;46889;37.310;13.582;2023-08-08T14:10:37;30.20;99.90
61004;DHT22;46889;37.310;13.582;2023-08-08T14:13:03;30.40;99.90
61004;DHT22;46889;37.310;13.582;2023-08-08T14:15:29;30.40;99.90
61004;DHT22;46889;37.310;13.582;2023-08-08T14:17:55;30.30;99.90
61004;DHT22;46889;37.310;13.582;2023-08-08T14:20:21;30.40;99.90
61004;DHT22;46889;37.310;13.582;2023-08-08T14:22:46;30.50;99.90
61004;DHT22;46889;37.310;13.582;2023-08-08T14:25:13;30.60;99.90
61004;DHT22;46889;37.310;13.582;2023-08-08T14:27:39;30.70;99.90
61004;DHT22;46889;37.310;13.582;2023-08-08T14:30:05;30.50;99.90
61004;DHT22;46889;37.310;13.582;2023-08-08T14:32:31;30.50;99.90
61004;DHT22;46889;37.310;13.582;2023-08-08T14:34:56;30.40;99.90
61004;DHT22;46889;37.310;13.582;2023-08-08T14:37:22;30.40;99.90
61004;DHT22;46889;37.310;13.582;2023-08-08T14:39:48;30.40;99.90
61004;DHT22;46889;37.310;13.582;2023-08-08T14:42:14;30.50;99.90
61004;DHT22;46889;37.310;13.582;2023-08-08T14:44:40;30.40;99.90
61004;DHT22;46889;37.310;13.582;2023-08-08T14:47:06;30.20;99.90
61004;DHT22;46889;37.310;13.582;2023-08-08T14:49:32;30.50;99.90
61004;DHT22;46889;37.310;13.582;2023-08-08T14:51:57;30.50;99.90
61004;DHT22;46889;37.310;13.582;2023-08-08T14:54:23;30.60;99.90
61004;DHT22;46889;37.310;13.582;2023-08-08T14:56:49;30.60;99.90
61004;DHT22;46889;37.310;13.582;2023-08-08T14:59:16;30.50;99.90
61004;DHT22;46889;37.310;13.582;2023-08-08T15:01:42;30.60;99.90
61004;DHT22;46889;37.310;13.582;2023-08-08T15:04:07;30.70;99.90
61004;DHT22;46889;37.310;13.582;2023-08-08T15:06:35;30.50;99.90
61004;DHT22;46889;37.310;13.582;2023-08-08T15:09:01;30.40;99.90
61004;DHT22;46889;37.310;13.582;2023-08-08T15:11:28;30.20;99.90